createdAt,value
2019-04-20T00:02:31.954Z,10.57
2019-04-20T00:07:37.762Z,10.23
2019-04-20T00:12:59.728Z,9.90
2019-04-20T00:17:56.223Z,10.93
2019-04-20T00:23:14.590Z,10.30
2019-04-20T00:28:35.237Z,11.33
2019-04-20T00:33:39.773Z,10.07
2019-04-20T00:38:39.619Z,10.47
2019-04-20T00:43:42.057Z,10.70
2019-04-20T00:48:55.996Z,10.50
2019-04-20T00:53:58.742Z,10.93
2019-04-20T00:59:19.329Z,11.73
2019-04-20T01:04:30.093Z,12.67
2019-04-20T01:09:27.100Z,12.87
2019-04-20T01:14:40.617Z,11.50
2019-04-20T01:19:40.570Z,11.77
2019-04-20T01:24:48.649Z,12.03
2019-04-20T01:30:07.112Z,12.70
2019-04-20T01:35:21.786Z,11.70
2019-04-20T01:40:11.272Z,11.90
2019-04-20T01:45:22.416Z,12.53
2019-04-20T01:50:28.434Z,12.93
2019-04-20T01:55:46.649Z,12.57
2019-04-20T02:00:46.007Z,12.73
2019-04-20T02:05:59.131Z,13.63
2019-04-20T02:11:05.371Z,12.20
2019-04-20T02:16:18.326Z,12.13
2019-04-20T02:21:34.044Z,12.30
2019-04-20T02:26:24.117Z,12.40
2019-04-20T02:32:11.887Z,13.17
2019-04-20T02:37:28.779Z,12.50
2019-04-20T02:42:35.317Z,13.80
2019-04-20T02:57:55.542Z,12.27
2019-04-20T03:02:41.200Z,13.27
2019-04-20T03:07:55.716Z,13.93
2019-04-20T03:13:05.339Z,12.97
2019-04-20T03:18:12.015Z,13.23
2019-04-20T03:28:28.041Z,13.40
2019-04-20T03:38:45.097Z,13.87
2019-04-20T03:43:28.899Z,14.93
2019-04-20T03:48:53.653Z,14.13
2019-04-20T03:54:10.719Z,14.63
2019-04-20T03:59:33.808Z,15.73
2019-04-20T04:04:59.407Z,13.90
2019-04-20T04:10:06.979Z,15.20
2019-04-20T04:14:57.825Z,13.00
2019-04-20T04:20:11.800Z,12.77
2019-04-20T04:25:25.103Z,13.33
2019-04-20T04:30:35.325Z,14.30
2019-04-20T04:35:47.914Z,12.93
2019-04-20T04:41:09.573Z,13.13
2019-04-20T04:45:46.824Z,14.53
2019-04-20T04:50:58.988Z,14.67
2019-04-20T04:56:05.734Z,13.53
2019-04-20T05:01:13.948Z,16.03
2019-04-20T05:06:31.743Z,14.27
2019-04-20T05:11:25.737Z,14.90
2019-04-20T05:16:55.556Z,14.10
2019-04-20T05:22:08.145Z,14.73
2019-04-20T05:27:13.195Z,15.30
2019-04-20T05:32:06.175Z,14.27
2019-04-20T05:37:37.122Z,14.57
2019-04-20T05:42:38.458Z,13.47
2019-04-20T05:47:43.125Z,14.90
2019-04-20T05:52:56.292Z,14.80
2019-04-20T05:58:02.116Z,11.97
2019-04-20T06:03:05.842Z,10.90
2019-04-20T06:08:20.420Z,10.27
2019-04-20T06:13:30.009Z,10.63
2019-04-20T06:18:59.397Z,11.17
2019-04-20T06:24:10.608Z,11.20
2019-04-20T06:29:16.023Z,9.27
2019-04-20T06:34:41.558Z,9.10
2019-04-20T06:39:40.348Z,8.77
2019-04-20T06:45:02.063Z,8.87
2019-04-20T06:50:07.448Z,8.07
2019-04-20T06:55:13.852Z,8.73
2019-04-20T07:00:25.360Z,9.43
2019-04-20T07:05:43.702Z,7.97
2019-04-20T07:10:52.100Z,8.50
2019-04-20T07:15:50.762Z,7.60
2019-04-20T07:21:16.323Z,8.33
2019-04-20T07:26:21.027Z,8.03
2019-04-20T07:31:18.194Z,8.30
2019-04-20T07:36:36.026Z,7.17
2019-04-20T07:41:43.259Z,8.33
2019-04-20T07:46:54.788Z,6.40
2019-04-20T07:51:35.518Z,6.40
2019-04-20T07:57:02.110Z,10.80
2019-04-20T08:02:33.409Z,10.73
2019-04-20T08:07:14.124Z,11.73
2019-04-20T08:13:00.544Z,10.00
2019-04-20T08:18:01.173Z,11.70
2019-04-20T08:23:09.710Z,10.93
2019-04-20T08:27:57.567Z,10.03
2019-04-20T08:33:27.382Z,10.43
2019-04-20T08:38:58.371Z,10.03
2019-04-20T08:43:47.390Z,10.60
2019-04-20T08:48:52.037Z,10.10
2019-04-20T08:54:00.010Z,9.23
2019-04-20T08:58:43.611Z,7.90
2019-04-20T09:03:58.907Z,7.57
2019-04-20T09:09:22.403Z,6.60
2019-04-20T09:14:23.753Z,4.90
2019-04-20T09:19:39.975Z,4.07
2019-04-20T09:25:05.677Z,4.17
2019-04-20T09:30:00.574Z,3.70
2019-04-20T09:35:13.654Z,3.83
2019-04-20T09:40:28.270Z,3.10
2019-04-20T09:45:23.252Z,2.00
2019-04-20T09:50:45.070Z,2.67
2019-04-20T09:55:52.156Z,1.67
2019-04-20T10:00:58.229Z,2.67
2019-04-20T10:05:49.809Z,2.13
2019-04-20T10:10:56.099Z,1.60
2019-04-20T10:16:02.058Z,1.90
2019-04-20T10:21:07.856Z,1.80
2019-04-20T10:26:14.375Z,1.60
2019-04-20T10:31:22.379Z,1.73
2019-04-20T10:36:33.369Z,1.43
2019-04-20T10:41:49.123Z,1.67
2019-04-20T10:46:49.146Z,1.80
2019-04-20T10:51:57.813Z,2.17
2019-04-20T10:57:03.811Z,1.90
2019-04-20T11:02:09.993Z,1.90
2019-04-20T11:07:16.590Z,2.23
2019-04-20T11:12:22.461Z,2.40
2019-04-20T11:17:29.979Z,2.07
2019-04-20T11:22:35.896Z,1.93
2019-04-20T11:27:41.681Z,1.60
2019-04-20T11:32:48.410Z,2.00
2019-04-20T11:37:57.496Z,1.40
2019-04-20T11:43:03.900Z,1.70
2019-04-20T11:48:11.631Z,1.70
2019-04-20T11:53:17.551Z,1.60
2019-04-20T11:58:23.841Z,2.10
2019-04-20T12:03:41.507Z,1.60
2019-04-20T12:08:40.243Z,1.70
2019-04-20T12:13:44.921Z,1.80
2019-04-20T12:18:50.760Z,1.40
2019-04-20T12:23:56.517Z,1.33
2019-04-20T12:29:03.541Z,1.50
2019-04-20T12:34:10.528Z,1.90
2019-04-20T12:39:17.247Z,1.70
2019-04-20T12:44:23.698Z,1.83
2019-04-20T12:49:31.717Z,2.70
2019-04-20T12:54:41.189Z,1.90
2019-04-20T12:59:46.992Z,1.90
2019-04-20T13:04:53.379Z,2.17
2019-04-20T13:10:02.075Z,2.67
2019-04-20T13:15:32.155Z,1.80
2019-04-20T13:20:38.105Z,1.93
2019-04-20T13:25:43.751Z,1.90
2019-04-20T13:30:50.127Z,1.90
2019-04-20T13:35:56.431Z,1.70
2019-04-20T13:41:02.445Z,1.77
2019-04-20T13:46:09.150Z,1.63
2019-04-20T13:51:15.228Z,2.13
2019-04-20T13:56:23.807Z,2.07
2019-04-20T14:01:50.740Z,1.80
2019-04-20T14:06:57.599Z,2.07
2019-04-20T14:12:14.195Z,1.90
2019-04-20T14:17:11.182Z,1.93
2019-04-20T14:22:18.705Z,2.43
2019-04-20T14:27:24.667Z,2.17
2019-04-20T14:32:30.573Z,2.20
2019-04-20T14:37:36.425Z,2.43
2019-04-20T14:42:47.794Z,1.63
2019-04-20T14:47:51.936Z,2.20
2019-04-20T14:52:57.682Z,2.00
2019-04-20T14:58:05.789Z,1.53
2019-04-20T15:03:28.516Z,2.37
2019-04-20T15:08:34.564Z,2.97
2019-04-20T15:13:40.709Z,4.03
2019-04-20T15:18:58.109Z,2.53
2019-04-20T15:24:04.017Z,2.00
2019-04-20T15:29:10.507Z,1.97
2019-04-20T15:34:17.053Z,2.47
2019-04-20T15:39:25.148Z,2.23
2019-04-20T15:44:31.480Z,2.17
2019-04-20T15:49:37.754Z,2.17
2019-04-20T15:54:43.901Z,2.20
2019-04-20T15:59:50.627Z,2.40
2019-04-20T16:04:58.365Z,2.23
2019-04-20T16:10:07.457Z,2.40
2019-04-20T16:15:13.632Z,3.23
2019-04-20T16:20:23.379Z,2.63
2019-04-20T16:25:32.059Z,2.40
2019-04-20T16:30:38.085Z,2.10
2019-04-20T16:35:44.594Z,2.60
2019-04-20T16:40:50.676Z,2.80
2019-04-20T16:45:57.586Z,2.27
2019-04-20T16:51:04.782Z,2.40
2019-04-20T16:56:10.932Z,2.10
2019-04-20T17:01:17.225Z,2.60
2019-04-20T17:06:24.249Z,2.33
2019-04-20T17:11:30.314Z,2.33
2019-04-20T17:16:37.550Z,2.07
2019-04-20T17:21:44.606Z,2.53
2019-04-20T17:26:52.946Z,2.40
2019-04-20T17:32:08.045Z,2.87
2019-04-20T17:37:15.254Z,2.40
2019-04-20T17:42:38.895Z,2.80
2019-04-20T17:47:47.132Z,2.50
2019-04-20T17:52:57.872Z,2.40
2019-04-20T17:57:44.053Z,3.40
2019-04-20T18:03:10.072Z,3.03
2019-04-20T18:08:20.431Z,2.60
2019-04-20T18:13:16.617Z,2.93
2019-04-20T18:18:35.308Z,2.40
2019-04-20T18:23:36.284Z,2.53
2019-04-20T18:28:58.641Z,2.77
2019-04-20T18:33:44.599Z,3.00
2019-04-20T18:38:57.474Z,2.90
2019-04-20T18:43:59.098Z,2.77
2019-04-20T18:49:18.320Z,2.87
2019-04-20T18:54:18.849Z,3.33
2019-04-20T18:59:23.373Z,3.40
2019-04-20T19:04:28.142Z,3.17
2019-04-20T19:09:36.024Z,3.83
2019-04-20T19:14:51.386Z,2.93
2019-04-20T19:20:14.404Z,3.63
2019-04-20T19:25:27.384Z,4.10
2019-04-20T19:30:37.246Z,3.63
2019-04-20T19:35:46.830Z,3.37
2019-04-20T19:40:55.978Z,3.97
2019-04-20T19:46:29.385Z,4.00
2019-04-20T19:51:27.243Z,3.10
2019-04-20T19:56:22.496Z,3.30
2019-04-20T20:01:13.933Z,3.67
2019-04-20T20:06:29.314Z,3.77
2019-04-20T20:11:32.316Z,4.77
2019-04-20T20:16:56.428Z,3.60
2019-04-20T20:22:00.257Z,3.10
2019-04-20T20:26:56.280Z,3.83
2019-04-20T20:32:11.495Z,3.70
2019-04-20T20:37:12.434Z,3.20
2019-04-20T20:42:23.248Z,3.10
2019-04-20T20:47:41.264Z,2.47
2019-04-20T20:52:44.038Z,3.30
2019-04-20T20:57:44.968Z,3.13
2019-04-20T21:02:52.443Z,3.20
2019-04-20T21:07:51.586Z,3.10
2019-04-20T21:13:01.351Z,3.10
2019-04-20T21:18:27.476Z,3.17
2019-04-20T21:23:28.515Z,2.60
2019-04-20T21:28:20.913Z,3.80
2019-04-20T21:33:30.229Z,3.17
2019-04-20T21:38:39.292Z,3.27
2019-04-20T21:43:44.424Z,3.40
2019-04-20T21:49:01.653Z,3.07
2019-04-20T21:53:59.787Z,3.23
2019-04-20T21:59:14.312Z,3.37
2019-04-20T22:04:14.287Z,3.93
2019-04-20T22:09:20.440Z,3.50
2019-04-20T22:14:31.826Z,3.43
2019-04-20T22:19:44.071Z,3.83
2019-04-20T22:25:00.023Z,3.50
2019-04-20T22:29:50.231Z,4.00
2019-04-20T22:35:03.059Z,4.47
2019-04-20T22:40:11.808Z,4.30
2019-04-20T22:45:15.616Z,4.17
2019-04-20T22:50:40.137Z,3.80
2019-04-20T22:55:55.788Z,4.40
2019-04-20T23:00:49.051Z,4.23
2019-04-20T23:05:46.986Z,4.13
2019-04-20T23:10:53.517Z,3.70
2019-04-20T23:16:01.974Z,5.67
2019-04-20T23:21:10.487Z,5.70
2019-04-20T23:26:19.334Z,4.40
2019-04-20T23:31:25.170Z,5.00
2019-04-20T23:36:36.535Z,4.40
2019-04-20T23:41:37.702Z,4.50
2019-04-20T23:47:01.175Z,3.73
2019-04-20T23:52:26.378Z,4.07
2019-04-20T23:57:09.031Z,3.43
